Time;durP1;ratioP1;P1;durP2;ratioP2;P2;SDS_P1;SDS_P2;PMS_P1;PMS_P2;Temp;Humidity;BMP_temperature;BMP_pressure;BME280_temperature;BME280_humidity;BME280_pressure;Samples;Min_cycle;Max_cycle;Signal;HPM_P1;HPM_P2
2023/05/13 00:00:35;;;;;;;8.45;6.75;;;13.60;99.90;;;;;;6245467;22;20025;-74
2023/05/13 00:03:01;;;;;;;9.02;5.70;;;13.60;99.90;;;;;;6245282;22;20019;-74
2023/05/13 00:05:26;;;;;;;7.30;5.20;;;13.60;99.90;;;;;;6272271;22;20435;-73
2023/05/13 00:07:52;;;;;;;9.57;5.82;;;13.50;99.90;;;;;;6272307;22;20027;-73
2023/05/13 00:10:19;;;;;;;8.48;5.78;;;13.50;99.90;;;;;;6245290;22;20027;-81
2023/05/13 00:12:45;;;;;;;9.73;6.53;;;13.50;99.90;;;;;;6246366;22;20066;-81
2023/05/13 00:15:11;;;;;;;9.57;5.38;;;13.40;99.90;;;;;;6246322;22;20020;-81
2023/05/13 00:17:36;;;;;;;9.98;5.53;;;13.40;99.90;;;;;;6283941;22;20023;-81
2023/05/13 00:20:03;;;;;;;7.22;5.28;;;13.40;99.90;;;;;;6277242;22;20023;-81
2023/05/13 00:22:29;;;;;;;8.15;5.53;;;13.30;99.90;;;;;;6304767;22;20015;-81
2023/05/13 00:24:54;;;;;;;7.13;5.55;;;13.30;99.90;;;;;;6305119;22;20633;-81
2023/05/13 00:27:20;;;;;;;6.90;5.18;;;13.30;99.90;;;;;;6303861;22;20015;-70
2023/05/13 00:29:46;;;;;;;9.02;6.00;;;13.30;99.90;;;;;;6303098;22;20011;-74
2023/05/13 00:32:11;;;;;;;7.63;5.63;;;13.30;99.90;;;;;;6275464;22;20027;-73
2023/05/13 00:34:37;;;;;;;7.55;5.70;;;13.20;99.90;;;;;;6302841;22;20595;-74
2023/05/13 00:37:03;;;;;;;8.15;5.88;;;13.20;99.90;;;;;;6303813;22;20081;-74
2023/05/13 00:39:29;;;;;;;7.32;6.13;;;13.20;99.90;;;;;;6303111;22;20449;-74
2023/05/13 00:41:55;;;;;;;9.75;6.55;;;13.10;99.90;;;;;;6275510;22;20019;-74
2023/05/13 00:44:20;;;;;;;6.45;5.80;;;13.10;99.90;;;;;;6275409;22;20133;-73
2023/05/13 00:46:46;;;;;;;9.73;6.45;;;13.10;99.90;;;;;;6303117;22;20807;-74
2023/05/13 00:49:12;;;;;;;8.75;5.47;;;13.00;99.90;;;;;;6249782;22;20019;-74
2023/05/13 00:51:38;;;;;;;9.63;5.90;;;13.00;99.90;;;;;;6275099;22;20069;-74
2023/05/13 00:54:04;;;;;;;7.43;6.35;;;13.00;99.90;;;;;;6302741;22;20023;-74
2023/05/13 00:56:30;;;;;;;8.38;5.80;;;13.00;99.90;;;;;;6302753;22;20019;-74
2023/05/13 00:58:55;;;;;;;8.93;5.90;;;13.00;99.90;;;;;;6275131;22;20094;-73
2023/05/13 01:01:33;;;;;;;9.85;6.25;;;13.00;99.90;;;;;;6302606;22;20497;-73
2023/05/13 01:04:17;;;;;;;6.53;5.60;;;12.90;99.90;;;;;;6303121;22;20082;-73
2023/05/13 01:07:13;;;;;;;13.45;6.20;;;12.80;99.90;;;;;;6302757;22;20096;-74
2023/05/13 01:09:41;;;;;;;8.15;5.82;;;12.80;99.90;;;;;;6274837;22;20109;-73
2023/05/13 01:12:09;;;;;;;8.07;5.95;;;12.80;99.90;;;;;;6274107;22;20023;-74
2023/05/13 01:14:46;;;;;;;9.80;5.85;;;12.80;99.90;;;;;;6302680;22;20331;-73
2023/05/13 01:17:19;;;;;;;7.68;6.15;;;12.70;99.90;;;;;;6295277;22;20470;-73
2023/05/13 01:19:45;;;;;;;;;;;12.70;99.90;;;;;;6272443;22;20105;-73
2023/05/13 01:22:12;;;;;;;8.38;6.07;;;12.70;99.90;;;;;;6271575;22;19921;-74
2023/05/13 01:24:37;;;;;;;12.23;6.70;;;12.70;99.90;;;;;;6272099;22;20062;-80
2023/05/13 01:27:04;;;;;;;8.90;6.65;;;12.70;99.90;;;;;;6219674;22;20448;-73
2023/05/13 01:29:30;;;;;;;8.98;6.40;;;12.70;99.90;;;;;;6271407;22;20023;-73
2023/05/13 01:31:57;;;;;;;9.55;6.82;;;12.60;99.90;;;;;;6271499;22;20011;-73
2023/05/13 01:34:25;;;;;;;8.05;6.78;;;12.60;99.90;;;;;;6271420;22;20015;-73
2023/05/13 01:36:50;;;;;;;10.18;6.57;;;12.60;99.90;;;;;;6244088;22;20020;-73
2023/05/13 01:39:19;;;;;;;8.40;6.70;;;12.60;99.90;;;;;;6269564;22;20077;-73
2023/05/13 01:41:44;;;;;;;7.28;6.03;;;12.50;99.90;;;;;;6271824;22;20074;-74
2023/05/13 01:44:10;;;;;;;7.70;6.28;;;12.50;99.90;;;;;;6244405;22;20364;-74
2023/05/13 01:46:39;;;;;;;11.77;6.90;;;12.50;99.90;;;;;;6269825;22;20023;-73
2023/05/13 01:49:06;;;;;;;8.13;6.60;;;12.40;99.90;;;;;;6244084;22;20034;-73
2023/05/13 01:51:32;;;;;;;10.55;6.22;;;12.40;99.90;;;;;;6271662;22;20017;-73
2023/05/13 01:53:57;;;;;;;8.45;6.85;;;12.40;99.90;;;;;;6271685;22;20123;-73
2023/05/13 01:56:23;;;;;;;11.85;6.28;;;12.50;99.90;;;;;;6271179;22;20073;-73
2023/05/13 01:58:49;;;;;;;6.65;5.85;;;12.40;99.90;;;;;;6244452;22;20088;-74
2023/05/13 02:01:15;;;;;;;9.50;5.88;;;12.40;99.90;;;;;;6271490;22;20015;-73
2023/05/13 02:03:41;;;;;;;11.57;6.57;;;12.30;99.90;;;;;;6278579;22;20035;-70
2023/05/13 02:06:07;;;;;;;12.90;7.10;;;12.30;99.90;;;;;;6300960;22;20116;-70
2023/05/13 02:08:32;;;;;;;14.65;6.60;;;12.30;99.90;;;;;;6302267;22;20046;-71
2023/05/13 02:10:59;;;;;;;8.77;6.28;;;12.30;99.90;;;;;;6300882;22;20015;-70
2023/05/13 02:13:25;;;;;;;8.90;6.20;;;12.30;99.90;;;;;;6300603;22;20512;-70
2023/05/13 02:15:52;;;;;;;12.32;6.65;;;12.20;99.90;;;;;;6300583;22;20027;-70
2023/05/13 02:18:18;;;;;;;8.38;6.40;;;12.20;99.90;;;;;;6300388;22;20475;-70
2023/05/13 02:20:44;;;;;;;9.95;6.35;;;12.20;99.90;;;;;;6304127;22;20020;-70
2023/05/13 02:23:10;;;;;;;8.38;5.72;;;12.30;99.90;;;;;;6304710;22;20034;-70
2023/05/13 02:25:36;;;;;;;8.82;6.72;;;12.20;99.90;;;;;;6304553;22;20012;-70
2023/05/13 02:28:02;;;;;;;8.43;6.50;;;12.20;99.90;;;;;;6304035;22;20066;-71
2023/05/13 02:30:27;;;;;;;10.52;6.50;;;12.20;99.90;;;;;;6304308;22;20011;-70
2023/05/13 02:32:55;;;;;;;9.00;6.35;;;12.20;99.90;;;;;;6304520;22;20017;-70
2023/05/13 02:35:21;;;;;;;10.32;6.70;;;12.20;99.90;;;;;;6304171;22;20024;-70
2023/05/13 02:37:47;;;;;;;10.98;7.13;;;12.10;99.90;;;;;;6304188;22;20055;-71
2023/05/13 02:40:13;;;;;;;11.60;6.85;;;12.10;99.90;;;;;;6304140;22;20023;-70
2023/05/13 02:42:39;;;;;;;10.30;7.18;;;12.00;99.90;;;;;;6304189;22;20048;-70
2023/05/13 02:45:05;;;;;;;12.45;8.40;;;11.90;99.90;;;;;;6304181;22;20324;-70
2023/05/13 02:47:31;;;;;;;10.23;6.93;;;11.90;99.90;;;;;;6302632;22;20050;-70
2023/05/13 02:49:58;;;;;;;9.52;6.78;;;11.90;99.90;;;;;;6304499;22;20019;-70
2023/05/13 02:52:24;;;;;;;9.30;7.22;;;11.90;99.90;;;;;;6302615;22;20031;-70
2023/05/13 02:54:49;;;;;;;9.00;6.85;;;11.90;99.90;;;;;;6304237;22;20038;-70
2023/05/13 02:57:15;;;;;;;9.48;6.72;;;11.90;99.90;;;;;;6302038;22;20027;-70
2023/05/13 02:59:41;;;;;;;11.35;7.40;;;11.80;99.90;;;;;;6302947;22;20076;-70
2023/05/13 03:02:07;;;;;;;7.65;6.85;;;11.90;99.90;;;;;;6304177;22;20030;-70
2023/05/13 03:04:32;;;;;;;12.48;7.63;;;11.80;99.90;;;;;;6303622;22;20027;-70
2023/05/13 03:06:58;;;;;;;10.15;6.82;;;11.80;99.90;;;;;;6302243;22;20090;-70
2023/05/13 03:09:24;;;;;;;10.88;7.10;;;11.80;99.90;;;;;;6304025;22;20054;-71
2023/05/13 03:11:49;;;;;;;10.93;7.45;;;11.70;99.90;;;;;;6303671;22;20023;-70
2023/05/13 03:14:15;;;;;;;9.68;7.38;;;11.60;99.90;;;;;;6304096;22;20050;-71
2023/05/13 03:16:41;;;;;;;12.40;8.98;;;11.50;99.90;;;;;;6303926;22;20101;-70
2023/05/13 03:19:06;;;;;;;8.82;6.82;;;11.50;99.90;;;;;;6302653;22;20346;-80
2023/05/13 03:21:32;;;;;;;12.40;8.40;;;11.50;99.90;;;;;;6302709;22;20019;-74
2023/05/13 03:23:58;;;;;;;7.82;6.95;;;11.50;99.90;;;;;;6302769;22;20019;-74
2023/05/13 03:26:23;;;;;;;12.32;7.68;;;11.50;99.90;;;;;;6302136;22;20023;-74
2023/05/13 03:28:49;;;;;;;9.68;7.72;;;11.50;99.90;;;;;;6304164;22;20058;-74
2023/05/13 03:31:15;;;;;;;8.68;7.60;;;11.40;99.90;;;;;;6303408;22;20449;-74
2023/05/13 03:33:40;;;;;;;10.73;7.30;;;11.40;99.90;;;;;;6304011;22;20458;-73
2023/05/13 03:36:06;;;;;;;13.90;7.90;;;11.40;99.90;;;;;;6275837;22;20029;-75
2023/05/13 03:38:32;;;;;;;9.88;8.10;;;11.40;99.90;;;;;;6302033;22;20332;-73
2023/05/13 03:40:58;;;;;;;11.07;8.05;;;11.30;99.90;;;;;;6301798;22;20026;-74
2023/05/13 03:43:23;;;;;;;10.73;8.27;;;11.30;99.90;;;;;;6301727;22;20073;-74
2023/05/13 03:45:50;;;;;;;11.20;8.13;;;11.30;99.90;;;;;;6301564;22;20347;-74
2023/05/13 03:48:16;;;;;;;12.13;8.00;;;11.30;99.90;;;;;;6303609;22;20098;-73
2023/05/13 03:50:42;;;;;;;12.50;8.80;;;11.30;99.90;;;;;;6301266;22;20434;-74
2023/05/13 03:53:09;;;;;;;10.15;8.60;;;11.30;99.90;;;;;;6301312;22;20057;-74
2023/05/13 03:55:34;;;;;;;12.48;7.97;;;11.30;99.90;;;;;;6301158;22;20094;-74
2023/05/13 03:58:13;;;;;;;13.27;8.25;;;11.30;99.90;;;;;;6303228;22;20104;-74
2023/05/13 04:00:39;;;;;;;11.93;8.48;;;11.30;99.90;;;;;;6275798;22;20057;-73
2023/05/13 04:03:04;;;;;;;10.98;8.75;;;11.30;99.90;;;;;;6301344;22;20027;-73
2023/05/13 04:05:30;;;;;;;11.73;9.20;;;11.20;99.90;;;;;;6303292;22;20027;-73
2023/05/13 04:07:56;;;;;;;12.05;8.50;;;11.20;99.90;;;;;;6303419;22;20023;-73
2023/05/13 04:10:22;;;;;;;12.90;8.43;;;11.20;99.90;;;;;;6301371;22;20346;-73
2023/05/13 04:12:47;;;;;;;12.63;8.40;;;11.20;99.90;;;;;;6303794;22;20075;-73
2023/05/13 04:15:13;;;;;;;16.52;9.80;;;11.20;99.90;;;;;;6301515;22;20094;-72
2023/05/13 04:17:39;;;;;;;11.63;8.75;;;11.20;99.90;;;;;;6301444;22;20019;-70
2023/05/13 04:20:06;;;;;;;14.88;8.90;;;11.10;99.90;;;;;;6303345;22;20030;-70
2023/05/13 04:22:33;;;;;;;9.95;8.48;;;11.20;99.90;;;;;;6303152;22;20019;-70
2023/05/13 04:24:58;;;;;;;13.13;9.50;;;11.20;99.90;;;;;;6303198;22;20019;-70
2023/05/13 04:27:24;;;;;;;10.73;8.40;;;11.20;99.90;;;;;;6303190;22;20512;-70
2023/05/13 04:29:50;;;;;;;12.02;9.15;;;11.20;99.90;;;;;;6302955;22;20047;-70
2023/05/13 04:32:20;;;;;;;14.57;9.15;;;11.20;99.90;;;;;;6303181;22;20042;-70
2023/05/13 04:34:47;;;;;;;11.00;8.93;;;11.20;99.90;;;;;;6301386;22;20015;-70
2023/05/13 04:37:12;;;;;;;11.80;9.45;;;11.10;99.90;;;;;;6303281;22;20047;-70
2023/05/13 04:39:38;;;;;;;16.55;9.15;;;11.20;99.90;;;;;;6303179;22;20023;-70
2023/05/13 04:42:04;;;;;;;12.88;9.63;;;11.10;99.90;;;;;;6300731;22;20513;-71
2023/05/13 04:44:32;;;;;;;14.32;10.38;;;11.20;99.90;;;;;;6300826;22;20034;-71
2023/05/13 04:46:57;;;;;;;11.30;9.88;;;11.30;99.90;;;;;;6275308;22;20027;-71
2023/05/13 04:49:23;;;;;;;14.75;11.02;;;11.40;99.90;;;;;;6301054;22;20023;-71
2023/05/13 04:51:49;;;;;;;13.93;10.93;;;11.50;99.90;;;;;;6300813;22;20023;-71
2023/05/13 04:54:14;;;;;;;13.35;10.80;;;11.50;99.90;;;;;;6301476;22;20015;-71
2023/05/13 04:56:40;;;;;;;13.70;10.82;;;11.60;99.90;;;;;;6301209;22;20462;-73
2023/05/13 04:59:08;;;;;;;14.27;11.55;;;11.80;99.90;;;;;;6300909;22;20354;-73
2023/05/13 05:01:33;;;;;;;16.77;12.38;;;11.80;99.90;;;;;;6301124;22;20023;-73
2023/05/13 05:03:59;;;;;;;14.27;10.50;;;11.80;99.90;;;;;;6300798;22;20038;-73
2023/05/13 05:06:25;;;;;;;15.45;11.55;;;11.90;99.90;;;;;;6302292;22;20114;-72
2023/05/13 05:08:50;;;;;;;19.52;12.43;;;12.00;99.90;;;;;;6301240;22;20074;-73
2023/05/13 05:11:16;;;;;;;23.10;14.43;;;12.10;99.90;;;;;;6301576;22;20022;-71
2023/05/13 05:13:42;;;;;;;18.50;13.18;;;12.30;99.90;;;;;;6300705;22;20101;-73
2023/05/13 05:16:07;;;;;;;19.08;12.88;;;12.40;99.90;;;;;;6300649;22;20030;-72
2023/05/13 05:18:34;;;;;;;16.00;12.90;;;12.30;99.90;;;;;;6302320;22;20078;-73
2023/05/13 05:21:01;;;;;;;17.67;12.85;;;12.40;99.90;;;;;;6302305;22;20023;-72
2023/05/13 05:23:27;;;;;;;20.25;13.45;;;12.50;99.90;;;;;;6301905;22;20019;-73
2023/05/13 05:25:52;;;;;;;19.75;12.75;;;12.60;99.90;;;;;;6302766;22;20023;-73
2023/05/13 05:28:18;;;;;;;21.75;14.00;;;12.70;99.90;;;;;;6302673;22;20019;-73
2023/05/13 05:30:44;;;;;;;18.02;14.02;;;12.80;99.90;;;;;;6300664;22;20034;-73
2023/05/13 05:33:10;;;;;;;18.15;13.55;;;12.80;99.90;;;;;;6302305;22;20047;-73
2023/05/13 05:35:37;;;;;;;18.58;13.20;;;12.80;99.90;;;;;;6301915;22;20015;-73
2023/05/13 05:38:07;;;;;;;18.45;12.73;;;12.60;99.90;;;;;;6299542;22;20019;-71
2023/05/13 05:40:36;;;;;;;17.35;12.65;;;12.70;99.90;;;;;;6301874;22;20059;-72
2023/05/13 05:43:02;;;;;;;18.08;11.73;;;12.70;99.90;;;;;;6301823;22;20054;-74
2023/05/13 05:45:27;;;;;;;17.38;12.60;;;12.80;99.90;;;;;;6300521;22;20030;-73
2023/05/13 05:47:54;;;;;;;14.60;11.10;;;12.90;99.90;;;;;;6301747;22;20015;-75
2023/05/13 05:50:20;;;;;;;14.65;11.82;;;12.80;99.90;;;;;;6301588;22;20030;-71
2023/05/13 05:52:45;;;;;;;17.30;11.93;;;12.90;99.90;;;;;;6299980;22;20023;-70
2023/05/13 05:55:11;;;;;;;17.48;11.30;;;12.90;99.90;;;;;;6301782;22;20026;-72
2023/05/13 05:57:37;;;;;;;17.20;11.25;;;12.70;99.90;;;;;;6300457;22;20019;-74
2023/05/13 06:00:03;;;;;;;16.02;11.73;;;12.80;99.90;;;;;;6300784;22;20011;-69
2023/05/13 06:02:29;;;;;;;16.52;11.90;;;12.80;99.90;;;;;;6302674;22;20063;-70
2023/05/13 06:04:54;;;;;;;16.00;11.20;;;12.80;99.90;;;;;;6304924;22;20390;-70
2023/05/13 06:07:20;;;;;;;15.82;11.77;;;12.90;99.90;;;;;;6304741;22;20319;-69
2023/05/13 06:09:46;;;;;;;19.88;11.60;;;13.00;99.90;;;;;;6305304;22;20121;-70
2023/05/13 06:12:11;;;;;;;15.73;10.77;;;13.10;99.90;;;;;;6305477;22;20015;-69
2023/05/13 06:14:37;;;;;;;15.27;10.85;;;13.30;99.90;;;;;;6302797;22;20131;-70
2023/05/13 06:17:03;;;;;;;15.82;10.60;;;13.40;99.90;;;;;;6303398;22;20457;-70
2023/05/13 06:19:28;;;;;;;19.90;11.50;;;13.60;99.90;;;;;;6306023;22;20126;-71
2023/05/13 06:21:54;;;;;;;13.13;9.57;;;13.60;99.90;;;;;;6303588;22;20027;-71
2023/05/13 06:24:20;;;;;;;12.65;9.65;;;13.80;99.90;;;;;;6278323;22;20054;-70
2023/05/13 06:26:46;;;;;;;16.25;10.15;;;13.90;99.90;;;;;;6305386;22;20123;-70
2023/05/13 06:29:12;;;;;;;14.35;9.93;;;14.10;99.90;;;;;;6304544;22;20019;-80
2023/05/13 06:31:38;;;;;;;14.73;9.65;;;14.20;99.90;;;;;;6309740;22;20043;-79
2023/05/13 06:34:03;;;;;;;9.55;8.20;;;14.30;99.90;;;;;;6307472;22;20022;-79
2023/05/13 06:36:29;;;;;;;10.75;8.45;;;14.40;99.90;;;;;;6308794;22;20098;-79
2023/05/13 06:38:55;;;;;;;11.68;8.90;;;14.40;99.90;;;;;;6307626;22;20026;-79
2023/05/13 06:41:20;;;;;;;10.88;8.68;;;14.60;99.90;;;;;;6307378;22;20027;-79
2023/05/13 06:43:47;;;;;;;16.17;9.38;;;14.60;99.90;;;;;;6309664;22;20119;-80
2023/05/13 06:46:13;;;;;;;15.60;8.15;;;14.80;99.90;;;;;;6308878;22;20042;-80
2023/05/13 06:48:39;;;;;;;12.13;7.68;;;14.60;99.90;;;;;;6307924;22;20090;-81
2023/05/13 06:51:05;;;;;;;12.05;8.27;;;14.50;99.90;;;;;;6308664;22;20022;-80
2023/05/13 06:53:31;;;;;;;11.40;8.30;;;14.50;99.90;;;;;;6309817;22;20019;-81
2023/05/13 06:55:56;;;;;;;11.80;8.43;;;14.60;99.90;;;;;;6277712;22;20019;-80
2023/05/13 06:58:22;;;;;;;12.30;8.65;;;14.70;99.90;;;;;;6302137;22;20027;-79
2023/05/13 07:00:48;;;;;;;13.45;7.90;;;14.70;99.90;;;;;;6303611;22;20042;-80
2023/05/13 07:03:14;;;;;;;11.40;7.80;;;14.80;99.90;;;;;;6301859;22;20022;-80
2023/05/13 07:05:39;;;;;;;10.80;8.27;;;14.80;99.90;;;;;;6303400;22;20029;-79
2023/05/13 07:08:05;;;;;;;9.88;7.32;;;14.90;99.90;;;;;;6305334;22;20085;-80
2023/05/13 07:10:35;;;;;;;12.85;7.95;;;14.90;99.90;;;;;;6303909;22;20023;-81
2023/05/13 07:13:01;;;;;;;10.98;7.72;;;15.00;99.90;;;;;;6303698;22;20080;-80
2023/05/13 07:15:27;;;;;;;11.15;7.78;;;15.10;99.90;;;;;;6303647;22;20391;-79
2023/05/13 07:17:53;;;;;;;14.48;8.25;;;15.20;99.90;;;;;;6303562;22;20011;-79
2023/05/13 07:20:21;;;;;;;15.63;8.75;;;15.20;99.90;;;;;;6304767;22;20825;-79
2023/05/13 07:22:50;;;;;;;10.02;7.10;;;15.20;99.90;;;;;;6277565;22;20015;-78
2023/05/13 07:25:16;;;;;;;11.38;7.85;;;15.30;99.90;;;;;;6303076;22;20026;-79
2023/05/13 07:27:43;;;;;;;9.55;7.95;;;15.40;99.90;;;;;;6305273;22;20023;-80
2023/05/13 07:30:10;;;;;;;8.88;7.47;;;15.50;99.90;;;;;;6303194;22;20385;-70
2023/05/13 07:32:36;;;;;;;14.95;8.20;;;15.50;99.90;;;;;;6302903;22;20027;-80
2023/05/13 07:35:02;;;;;;;13.55;8.00;;;15.60;99.90;;;;;;6303106;22;20522;-80
2023/05/13 07:37:28;;;;;;;16.10;8.98;;;15.60;99.90;;;;;;6301978;22;20019;-73
2023/05/13 07:39:54;;;;;;;11.38;7.47;;;15.70;99.90;;;;;;6303656;22;20030;-72
2023/05/13 07:42:20;;;;;;;12.05;6.97;;;15.80;99.90;;;;;;6304254;22;20384;-76
2023/05/13 07:44:45;;;;;;;10.25;7.50;;;15.80;99.90;;;;;;6302626;22;20027;-76
2023/05/13 07:47:11;;;;;;;10.02;6.93;;;15.90;99.90;;;;;;6303583;22;20407;-70
2023/05/13 07:49:37;;;;;;;9.00;6.95;;;16.00;99.90;;;;;;6303982;22;20026;-67
2023/05/13 07:52:03;;;;;;;11.65;6.38;;;16.10;99.90;;;;;;6304208;22;20111;-67
2023/05/13 07:54:29;;;;;;;11.38;7.00;;;16.20;99.90;;;;;;6304324;22;20321;-71
2023/05/13 07:56:54;;;;;;;11.23;6.78;;;16.30;99.90;;;;;;6303913;22;20019;-71
2023/05/13 07:59:20;;;;;;;12.45;7.00;;;16.30;99.90;;;;;;6302308;22;20027;-71
2023/05/13 08:01:46;;;;;;;7.82;5.53;;;16.40;99.90;;;;;;6301969;22;20054;-71
2023/05/13 08:04:11;;;;;;;9.85;6.13;;;16.40;99.90;;;;;;6302193;22;20027;-83
2023/05/13 08:06:37;;;;;;;11.60;6.72;;;16.60;99.90;;;;;;6301957;22;20027;-71
2023/05/13 08:09:03;;;;;;;10.65;5.88;;;16.70;99.90;;;;;;6304016;22;20026;-71
2023/05/13 08:11:29;;;;;;;9.70;5.57;;;16.70;99.90;;;;;;6303608;22;20026;-71
2023/05/13 08:13:55;;;;;;;7.90;5.72;;;16.80;99.90;;;;;;6303490;22;20015;-70
2023/05/13 08:16:20;;;;;;;7.60;5.50;;;16.80;99.90;;;;;;6302514;22;20023;-70
2023/05/13 08:18:46;;;;;;;11.65;6.18;;;16.90;99.90;;;;;;6301206;22;20016;-71
2023/05/13 08:21:12;;;;;;;7.03;5.78;;;17.10;99.90;;;;;;6303411;22;20015;-71
2023/05/13 08:23:37;;;;;;;7.00;5.40;;;17.10;99.90;;;;;;6302982;22;20094;-71
2023/05/13 08:26:03;;;;;;;11.57;6.40;;;17.30;99.90;;;;;;6304106;22;20018;-85
2023/05/13 08:28:29;;;;;;;6.72;4.97;;;17.40;99.90;;;;;;6277352;22;20382;-84
2023/05/13 08:31:01;;;;;;;8.55;5.03;;;17.50;99.90;;;;;;6302387;22;20380;-85
2023/05/13 08:33:29;;;;;;;9.95;5.55;;;17.50;99.90;;;;;;6303036;22;20019;-86
2023/05/13 08:35:55;;;;;;;8.32;5.03;;;17.60;99.90;;;;;;6302745;22;20038;-85
2023/05/13 08:38:21;;;;;;;6.63;4.80;;;17.70;99.90;;;;;;6302392;22;20439;-85
2023/05/13 08:40:47;;;;;;;6.75;4.72;;;17.80;99.90;;;;;;6302794;22;20027;-85
2023/05/13 08:43:15;;;;;;;7.07;4.95;;;17.80;99.90;;;;;;6303514;22;20098;-85
2023/05/13 08:45:44;;;;;;;12.30;5.82;;;17.90;99.90;;;;;;6303200;22;20057;-87
2023/05/13 08:48:13;;;;;;;7.18;5.22;;;17.90;99.90;;;;;;6303151;22;20027;-86
2023/05/13 08:50:39;;;;;;;5.57;4.32;;;18.10;99.90;;;;;;6302975;22;20138;-86
2023/05/13 08:53:06;;;;;;;12.05;4.80;;;18.20;99.90;;;;;;6302720;22;20095;-84
2023/05/13 08:55:32;;;;;;;8.05;5.38;;;18.30;99.90;;;;;;6303680;22;20054;-86
2023/05/13 08:57:58;;;;;;;8.48;5.35;;;18.30;99.90;;;;;;6304665;22;20011;-84
2023/05/13 09:00:23;;;;;;;8.60;5.40;;;18.50;99.90;;;;;;6302866;22;20019;-86
2023/05/13 09:02:50;;;;;;;8.20;4.72;;;18.60;99.90;;;;;;6303124;22;20027;-84
2023/05/13 09:05:16;;;;;;;9.60;4.72;;;18.60;99.90;;;;;;6302707;22;20019;-84
2023/05/13 09:07:42;;;;;;;6.93;4.45;;;18.60;99.90;;;;;;6303105;22;20094;-84
2023/05/13 09:10:09;;;;;;;9.10;4.68;;;18.60;99.90;;;;;;6303179;22;20438;-84
2023/05/13 09:12:52;;;;;;;7.28;4.45;;;18.60;99.90;;;;;;6277412;22;20027;-85
2023/05/13 09:15:28;;;;;;;5.05;3.92;;;18.60;99.90;;;;;;6302650;22;20019;-84
2023/05/13 09:17:54;;;;;;;8.15;4.95;;;18.80;99.90;;;;;;6304533;22;20023;-82
2023/05/13 09:20:21;;;;;;;5.45;4.25;;;18.90;99.90;;;;;;6304727;22;20023;-87
2023/05/13 09:22:52;;;;;;;7.50;4.18;;;18.90;99.90;;;;;;6301919;22;20015;-76
2023/05/13 09:25:22;;;;;;;8.15;4.32;;;18.80;99.90;;;;;;6301404;22;20022;-69
2023/05/13 09:28:07;;;;;;;6.45;3.53;;;18.90;99.90;;;;;;6302872;22;20015;-69
2023/05/13 09:30:33;;;;;;;7.47;3.30;;;19.10;99.90;;;;;;6302338;22;20092;-69
2023/05/13 09:33:11;;;;;;;5.22;3.83;;;19.30;99.90;;;;;;6302672;22;20019;-69
2023/05/13 09:35:41;;;;;;;8.13;4.40;;;19.40;99.90;;;;;;6302761;22;20628;-68
2023/05/13 09:38:18;;;;;;;6.85;4.53;;;19.30;99.90;;;;;;6302392;22;20015;-69
2023/05/13 09:40:54;;;;;;;7.00;4.22;;;19.30;99.90;;;;;;6303337;22;20060;-79
2023/05/13 09:43:22;;;;;;;8.70;3.80;;;19.30;99.90;;;;;;6303970;22;20532;-80
2023/05/13 09:46:04;;;;;;;8.05;3.45;;;19.40;99.90;;;;;;6302190;22;20014;-79
2023/05/13 09:48:32;;;;;;;7.33;4.37;;;19.50;99.90;;;;;;6304026;22;20091;-79
2023/05/13 09:50:58;;;;;;;7.07;4.15;;;19.60;99.90;;;;;;6304125;22;20029;-80
2023/05/13 09:53:27;;;;;;;7.03;3.88;;;19.50;99.90;;;;;;6301990;22;20023;-79
2023/05/13 09:55:56;;;;;;;9.13;3.70;;;19.60;99.90;;;;;;6303656;22;20023;-79
2023/05/13 09:58:23;;;;;;;7.00;3.90;;;19.70;99.90;;;;;;6303879;22;20073;-81
2023/05/13 10:00:50;;;;;;;6.05;3.83;;;19.90;99.90;;;;;;6303992;22;20018;-69
2023/05/13 10:03:16;;;;;;;13.52;4.00;;;19.80;99.90;;;;;;6302484;22;20027;-69
2023/05/13 10:05:42;;;;;;;8.32;4.45;;;19.80;99.90;;;;;;6302083;22;20019;-69
2023/05/13 10:08:10;;;;;;;8.18;4.07;;;19.80;99.90;;;;;;6302569;22;20038;-69
2023/05/13 10:10:37;;;;;;;6.95;3.97;;;19.80;99.90;;;;;;6300520;22;20101;-69
2023/05/13 10:13:05;;;;;;;6.25;3.83;;;19.90;99.90;;;;;;6302226;22;20050;-69
2023/05/13 10:15:33;;;;;;;6.93;3.55;;;20.00;99.90;;;;;;6302307;22;20023;-69
2023/05/13 10:17:59;;;;;;;4.55;3.40;;;20.00;99.90;;;;;;6302871;22;20109;-69
2023/05/13 10:20:25;;;;;;;5.43;3.38;;;19.90;99.90;;;;;;6302870;22;20019;-69
2023/05/13 10:22:51;;;;;;;4.40;2.88;;;20.00;99.90;;;;;;6302608;22;20125;-69
2023/05/13 10:25:17;;;;;;;7.72;3.78;;;20.20;99.90;;;;;;6302568;22;20015;-69
2023/05/13 10:27:43;;;;;;;6.57;3.58;;;20.10;99.90;;;;;;6300153;22;20080;-69
2023/05/13 10:30:10;;;;;;;5.32;3.60;;;20.40;99.90;;;;;;6302366;22;20023;-69
2023/05/13 10:32:38;;;;;;;6.32;3.42;;;20.30;99.90;;;;;;6302383;22;20354;-68
2023/05/13 10:35:11;;;;;;;7.70;3.90;;;20.30;99.90;;;;;;6302367;22;20062;-69
2023/05/13 10:37:58;;;;;;;2.83;2.53;;;20.20;99.90;;;;;;6302425;22;20023;-72
2023/05/13 10:40:31;;;;;;;6.88;3.35;;;20.30;99.90;;;;;;6303177;22;20460;-70
2023/05/13 10:43:17;;;;;;;4.32;3.03;;;20.30;99.90;;;;;;6302084;22;20030;-71
2023/05/13 10:45:51;;;;;;;5.45;3.22;;;20.30;99.90;;;;;;6302099;22;20043;-71
2023/05/13 10:48:17;;;;;;;5.15;3.70;;;20.30;99.90;;;;;;6302738;22;20016;-72
2023/05/13 10:50:51;;;;;;;6.43;3.65;;;20.40;99.90;;;;;;6303786;22;20078;-73
2023/05/13 10:53:22;;;;;;;6.00;2.90;;;20.40;99.90;;;;;;6301825;22;20061;-73
2023/05/13 10:55:52;;;;;;;5.90;3.30;;;20.40;99.90;;;;;;6301670;22;20500;-74
2023/05/13 10:58:21;;;;;;;4.57;3.45;;;20.50;99.90;;;;;;6302163;22;20015;-73
2023/05/13 11:00:47;;;;;;;5.18;3.33;;;20.60;99.90;;;;;;6302344;22;20019;-73
2023/05/13 11:03:18;;;;;;;6.18;3.65;;;20.70;99.90;;;;;;6302377;22;20064;-74
2023/05/13 11:05:57;;;;;;;5.07;3.25;;;20.70;99.90;;;;;;6301906;22;20023;-73
2023/05/13 11:08:37;;;;;;;5.40;3.28;;;20.60;99.90;;;;;;6302677;22;20015;-74
2023/05/13 11:11:36;;;;;;;6.93;3.33;;;20.80;99.90;;;;;;6276727;22;20407;-73
2023/05/13 11:14:19;;;;;;;9.90;3.42;;;20.80;99.90;;;;;;6301595;22;20345;-73
2023/05/13 11:17:11;;;;;;;7.75;3.15;;;20.80;99.90;;;;;;6304437;22;20019;-73
2023/05/13 11:19:48;;;;;;;4.57;2.92;;;20.90;99.90;;;;;;6302236;22;20022;-71
2023/05/13 11:22:21;;;;;;;7.53;3.35;;;20.80;99.90;;;;;;6303731;22;20027;-72
2023/05/13 11:25:09;;;;;;;4.63;3.08;;;20.80;99.90;;;;;;6301853;22;20027;-71
2023/05/13 11:27:42;;;;;;;3.40;3.10;;;20.90;99.90;;;;;;6301938;22;20019;-71
2023/05/13 11:30:26;;;;;;;5.82;3.30;;;20.90;99.90;;;;;;6301916;22;20505;-71
2023/05/13 11:32:59;;;;;;;4.88;3.30;;;21.00;99.90;;;;;;6304224;22;20102;-71
2023/05/13 11:35:30;;;;;;;4.60;3.22;;;21.10;99.40;;;;;;6301912;22;20026;-71
2023/05/13 11:37:57;;;;;;;8.13;3.10;;;21.00;99.90;;;;;;6303896;22;20007;-71
2023/05/13 11:40:25;;;;;;;4.35;3.30;;;21.00;99.90;;;;;;6303614;22;20011;-70
2023/05/13 11:42:51;;;;;;;4.18;2.78;;;21.10;99.90;;;;;;6303847;22;20398;-70
2023/05/13 11:45:20;;;;;;;5.47;2.60;;;21.20;99.30;;;;;;6302073;22;20196;-70
2023/05/13 11:47:46;;;;;;;3.47;2.80;;;21.30;98.00;;;;;;6303269;22;20015;-71
2023/05/13 11:50:24;;;;;;;6.55;2.53;;;21.40;99.00;;;;;;6303249;22;20073;-71
2023/05/13 11:52:56;;;;;;;4.68;2.70;;;21.40;96.20;;;;;;6301171;22;20027;-71
2023/05/13 11:55:29;;;;;;;6.25;2.83;;;21.40;99.70;;;;;;6303645;22;20011;-77
2023/05/13 11:57:55;;;;;;;5.65;2.92;;;21.50;97.80;;;;;;6303713;22;20391;-76
2023/05/13 12:00:28;;;;;;;4.90;2.67;;;21.50;96.00;;;;;;6302246;22;20062;-76
2023/05/13 12:02:54;;;;;;;3.75;2.70;;;21.30;96.30;;;;;;6301774;22;20046;-76
2023/05/13 12:05:20;;;;;;;4.32;3.05;;;21.50;97.30;;;;;;6303380;22;20528;-76
2023/05/13 12:07:47;;;;;;;4.00;2.40;;;21.40;96.50;;;;;;6304030;22;20343;-77
2023/05/13 12:10:13;;;;;;;3.38;2.50;;;21.40;96.20;;;;;;6303586;22;20086;-76
2023/05/13 12:12:41;;;;;;;5.95;2.63;;;21.40;95.10;;;;;;6302285;22;20061;-79
2023/05/13 12:15:17;;;;;;;6.90;2.60;;;21.40;96.20;;;;;;6303450;22;20308;-79
2023/05/13 12:17:43;;;;;;;5.15;3.13;;;21.40;97.20;;;;;;6303832;22;20015;-78
2023/05/13 12:20:12;;;;;;;4.63;2.47;;;21.50;96.30;;;;;;6303397;22;20019;-79
2023/05/13 12:22:44;;;;;;;3.95;2.80;;;21.40;95.20;;;;;;6301173;22;20047;-78
2023/05/13 12:25:35;;;;;;;2.65;2.40;;;21.30;95.40;;;;;;6301566;22;20022;-79
2023/05/13 12:28:15;;;;;;;10.57;3.20;;;21.40;95.40;;;;;;6302600;22;20100;-79
2023/05/13 12:31:02;;;;;;;8.40;2.75;;;21.40;94.70;;;;;;6302346;22;20029;-80
2023/05/13 12:33:30;;;;;;;5.30;2.60;;;21.50;95.50;;;;;;6302312;22;20442;-80
2023/05/13 12:36:24;;;;;;;3.60;2.42;;;21.60;96.30;;;;;;6302348;22;20364;-79
2023/05/13 12:38:57;;;;;;;7.65;2.75;;;21.70;93.00;;;;;;6303656;22;20383;-79
2023/05/13 12:41:24;;;;;;;3.47;2.40;;;21.70;95.20;;;;;;6301661;22;20641;-78
2023/05/13 12:43:56;;;;;;;4.90;2.35;;;21.70;95.50;;;;;;6304143;22;20116;-80